Time;durP1;ratioP1;P1;durP2;ratioP2;P2;SDS_P1;SDS_P2;PMS_P1;PMS_P2;Temp;Humidity;BMP_temperature;BMP_pressure;BME280_temperature;BME280_humidity;BME280_pressure;Samples;Min_cycle;Max_cycle;Signal;HPM_P1;HPM_P2
2023/08/26 00:00:37;;;;;;;30.77;29.17;;;23.90;99.90;;;;;;5035736;28;20473;-47
2023/08/26 00:03:06;;;;;;;28.60;27.30;;;23.90;99.90;;;;;;5037918;28;20510;-48
2023/08/26 00:05:33;;;;;;;30.47;28.97;;;23.90;99.90;;;;;;5043091;28;20837;-48
2023/08/26 00:08:00;;;;;;;28.63;27.03;;;23.90;99.90;;;;;;5034816;28;20488;-48
2023/08/26 00:10:26;;;;;;;30.70;29.27;;;23.90;99.90;;;;;;5034826;28;20468;-48
2023/08/26 00:12:53;;;;;;;30.00;28.27;;;23.90;99.90;;;;;;5037094;28;20496;-48
2023/08/26 00:15:23;;;;;;;31.37;29.87;;;23.80;99.90;;;;;;5036175;28;20508;-47
2023/08/26 00:17:50;;;;;;;30.07;28.53;;;23.80;99.90;;;;;;5035326;28;20480;-48
2023/08/26 00:20:21;;;;;;;28.70;27.40;;;23.80;99.90;;;;;;5034393;28;20968;-52
2023/08/26 00:22:48;;;;;;;32.43;30.87;;;23.80;99.90;;;;;;5035796;28;20475;-49
2023/08/26 00:25:15;;;;;;;30.50;28.90;;;23.70;99.90;;;;;;5041687;28;20995;-48
2023/08/26 00:27:42;;;;;;;31.13;29.00;;;23.70;99.90;;;;;;5034865;28;20480;-49
2023/08/26 00:30:09;;;;;;;30.27;28.33;;;23.60;99.90;;;;;;5034754;28;20477;-48
2023/08/26 00:32:37;;;;;;;28.70;27.13;;;23.60;99.90;;;;;;5039994;28;20512;-53
2023/08/26 00:35:05;;;;;;;29.13;27.67;;;23.50;99.90;;;;;;5034214;28;20516;-52
2023/08/26 00:37:32;;;;;;;31.20;29.70;;;23.50;99.90;;;;;;5034699;28;20491;-47
2023/08/26 00:39:59;;;;;;;31.13;29.73;;;23.40;99.90;;;;;;5035208;28;20465;-51
2023/08/26 00:42:25;;;;;;;28.87;27.60;;;23.30;99.90;;;;;;5035474;28;20505;-52
2023/08/26 00:44:52;;;;;;;30.00;28.60;;;23.30;99.90;;;;;;5034611;28;20485;-52
2023/08/26 00:47:19;;;;;;;30.73;29.10;;;23.30;99.90;;;;;;5034764;28;20583;-51
2023/08/26 00:49:48;;;;;;;30.47;28.97;;;23.20;99.90;;;;;;5037055;28;20473;-52
2023/08/26 00:52:14;;;;;;;28.23;26.40;;;23.20;99.90;;;;;;5045828;28;20488;-49
2023/08/26 00:54:41;;;;;;;28.20;26.90;;;23.20;99.90;;;;;;5034320;28;20504;-52
2023/08/26 00:57:10;;;;;;;27.00;25.70;;;23.20;99.90;;;;;;5034740;28;20967;-48
2023/08/26 00:59:37;;;;;;;27.67;26.50;;;23.20;99.90;;;;;;5019278;28;20874;-49
2023/08/26 01:02:05;;;;;;;28.43;27.20;;;23.30;99.90;;;;;;5034469;28;20493;-54
2023/08/26 01:04:32;;;;;;;29.63;28.00;;;23.30;99.90;;;;;;5034631;28;20476;-49
2023/08/26 01:07:00;;;;;;;29.30;27.73;;;23.20;99.90;;;;;;5035093;28;20477;-53
2023/08/26 01:09:27;;;;;;;29.00;27.50;;;23.20;99.90;;;;;;5034675;28;20468;-48
2023/08/26 01:12:02;;;;;;;31.00;29.27;;;23.20;99.90;;;;;;5042154;28;20499;-51
2023/08/26 01:14:35;;;;;;;30.13;28.63;;;23.20;99.90;;;;;;5035206;28;20502;-48
2023/08/26 01:17:04;;;;;;;29.77;28.17;;;23.20;99.90;;;;;;5034988;28;20469;-50
2023/08/26 01:19:36;;;;;;;30.07;28.70;;;23.10;99.90;;;;;;5034234;28;20445;-48
2023/08/26 01:22:07;;;;;;;28.20;26.83;;;23.00;99.90;;;;;;5030436;28;20465;-50
2023/08/26 01:24:37;;;;;;;31.13;29.60;;;22.90;99.90;;;;;;5033782;28;20465;-50
2023/08/26 01:27:04;;;;;;;29.63;28.43;;;22.80;99.90;;;;;;5034471;28;20524;-48
2023/08/26 01:29:31;;;;;;;27.90;26.60;;;22.80;99.90;;;;;;5034483;28;20960;-47
2023/08/26 01:32:14;;;;;;;28.50;27.10;;;22.80;99.90;;;;;;5029616;28;20465;-49
2023/08/26 01:34:44;;;;;;;28.57;27.17;;;22.70;99.90;;;;;;5026881;28;20530;-48
2023/08/26 01:37:12;;;;;;;31.50;30.00;;;22.50;99.90;;;;;;5035023;28;20487;-48
2023/08/26 01:39:41;;;;;;;28.73;27.40;;;22.50;99.90;;;;;;5026735;28;20473;-53
2023/08/26 01:42:11;;;;;;;27.30;26.20;;;22.40;99.90;;;;;;5034735;28;20493;-51
2023/08/26 01:44:38;;;;;;;29.17;28.07;;;22.30;99.90;;;;;;5026650;28;20449;-48
2023/08/26 01:47:05;;;;;;;28.83;27.17;;;22.30;99.90;;;;;;5034611;28;20583;-47
2023/08/26 01:49:32;;;;;;;29.20;28.03;;;22.30;99.90;;;;;;5034592;28;20472;-50
2023/08/26 01:51:59;;;;;;;30.73;29.33;;;22.20;99.90;;;;;;5038397;28;20496;-49
2023/08/26 01:54:26;;;;;;;28.77;27.67;;;22.20;99.90;;;;;;5034595;28;20469;-50
2023/08/26 01:56:54;;;;;;;27.27;26.17;;;22.20;99.90;;;;;;5034351;28;20477;-49
2023/08/26 01:59:21;;;;;;;30.33;28.77;;;22.20;99.90;;;;;;5035952;28;20695;-52
2023/08/26 02:01:48;;;;;;;27.27;26.17;;;22.20;99.90;;;;;;5036682;28;20460;-50
2023/08/26 02:04:15;;;;;;;27.53;26.43;;;22.10;99.90;;;;;;5037757;28;20446;-48
2023/08/26 02:06:42;;;;;;;27.63;26.43;;;22.00;99.90;;;;;;5038592;28;20476;-51
2023/08/26 02:09:09;;;;;;;28.80;27.50;;;21.90;99.90;;;;;;5038526;28;20473;-51
2023/08/26 02:11:35;;;;;;;29.30;28.20;;;21.90;99.90;;;;;;5037795;28;20473;-50
2023/08/26 02:14:04;;;;;;;28.13;26.90;;;21.80;99.90;;;;;;5037830;28;20473;-52
2023/08/26 02:16:31;;;;;;;27.77;26.30;;;21.70;99.90;;;;;;5037546;28;20504;-52
2023/08/26 02:18:58;;;;;;;28.00;26.90;;;21.60;99.90;;;;;;5042232;28;20479;-53
2023/08/26 02:21:24;;;;;;;27.67;26.33;;;21.60;99.90;;;;;;5044636;28;20523;-48
2023/08/26 02:23:51;;;;;;;28.70;27.40;;;21.60;99.90;;;;;;5037039;28;20510;-50
2023/08/26 02:26:18;;;;;;;27.57;26.30;;;21.50;99.90;;;;;;5037812;28;20476;-50
2023/08/26 02:28:45;;;;;;;27.00;26.00;;;21.50;99.90;;;;;;5039298;28;20476;-54
2023/08/26 02:31:13;;;;;;;27.27;26.23;;;21.40;99.90;;;;;;5038403;28;20484;-51
2023/08/26 02:33:40;;;;;;;28.33;27.33;;;21.40;99.90;;;;;;5042294;28;20515;-49
2023/08/26 02:36:07;;;;;;;26.93;25.93;;;21.40;99.90;;;;;;5037695;28;20511;-51
2023/08/26 02:38:34;;;;;;;27.57;26.37;;;21.40;99.90;;;;;;5038228;28;20488;-50
2023/08/26 02:41:02;;;;;;;28.30;27.20;;;21.40;99.90;;;;;;5042045;28;20480;-51
2023/08/26 02:43:29;;;;;;;27.50;26.50;;;21.30;99.90;;;;;;5036896;28;20496;-52
2023/08/26 02:45:58;;;;;;;39.50;38.10;;;21.30;99.90;;;;;;5037421;28;20465;-53
2023/08/26 02:48:27;;;;;;;28.37;27.37;;;21.20;99.90;;;;;;5037282;28;20449;-50
2023/08/26 02:50:57;;;;;;;27.63;26.47;;;21.20;99.90;;;;;;5042975;28;20518;-50
2023/08/26 02:53:25;;;;;;;27.17;26.17;;;21.30;99.90;;;;;;5036504;28;20496;-51
2023/08/26 02:55:52;;;;;;;26.07;25.07;;;21.30;99.90;;;;;;5037100;28;20899;-53
2023/08/26 02:58:19;;;;;;;27.00;25.97;;;21.30;99.90;;;;;;5040167;28;20488;-50
2023/08/26 03:00:46;;;;;;;25.87;24.97;;;21.30;99.90;;;;;;5036930;28;20441;-51
2023/08/26 03:03:13;;;;;;;27.40;26.30;;;21.40;99.90;;;;;;5036357;28;20540;-54
2023/08/26 03:05:42;;;;;;;26.80;25.70;;;21.40;99.90;;;;;;5028919;28;20523;-54
2023/08/26 03:08:08;;;;;;;27.03;25.77;;;21.40;99.90;;;;;;5039714;28;21001;-53
2023/08/26 03:10:36;;;;;;;28.47;27.17;;;21.30;99.90;;;;;;5036201;28;20896;-53
2023/08/26 03:13:03;;;;;;;26.77;25.87;;;21.30;99.90;;;;;;5035851;28;20500;-52
2023/08/26 03:15:30;;;;;;;26.90;25.90;;;21.30;99.90;;;;;;5036020;28;20477;-52
2023/08/26 03:17:57;;;;;;;27.67;26.50;;;21.20;99.90;;;;;;5036505;28;20473;-54
2023/08/26 03:20:24;;;;;;;27.13;26.23;;;21.20;99.90;;;;;;5035873;28;20473;-54
2023/08/26 03:22:52;;;;;;;26.43;25.33;;;21.30;99.90;;;;;;5036222;28;20957;-53
2023/08/26 03:25:19;;;;;;;28.20;27.00;;;21.30;99.90;;;;;;5036063;28;20882;-52
2023/08/26 03:27:46;;;;;;;27.57;26.37;;;21.30;99.90;;;;;;5036719;28;20480;-53
2023/08/26 03:30:13;;;;;;;27.83;26.33;;;21.30;99.90;;;;;;5035355;28;20484;-52
2023/08/26 03:32:40;;;;;;;27.90;26.40;;;21.30;99.90;;;;;;5035327;28;20492;-54
2023/08/26 03:35:08;;;;;;;27.90;26.80;;;21.30;99.90;;;;;;5035421;28;20572;-54
2023/08/26 03:37:35;;;;;;;26.27;25.27;;;21.30;99.90;;;;;;5037889;28;20814;-49
2023/08/26 03:40:07;;;;;;;26.93;25.83;;;21.20;99.90;;;;;;5035700;28;20968;-54
2023/08/26 03:42:34;;;;;;;26.43;25.53;;;21.20;99.90;;;;;;5035979;28;20461;-52
2023/08/26 03:45:00;;;;;;;27.07;26.00;;;21.20;99.90;;;;;;5035482;28;20476;-53
2023/08/26 03:47:27;;;;;;;28.40;27.30;;;21.20;99.90;;;;;;5043567;28;20493;-50
2023/08/26 03:49:54;;;;;;;26.90;25.90;;;21.20;99.90;;;;;;5036336;28;20480;-52
2023/08/26 03:52:21;;;;;;;27.53;26.13;;;21.20;99.90;;;;;;5035759;28;20500;-54
2023/08/26 03:54:48;;;;;;;27.00;25.90;;;21.20;99.90;;;;;;5035998;28;20552;-53
2023/08/26 03:57:16;;;;;;;26.90;25.80;;;21.20;99.90;;;;;;5035955;28;20517;-52
2023/08/26 03:59:43;;;;;;;27.00;26.10;;;21.20;99.90;;;;;;5035715;28;20492;-54
2023/08/26 04:02:10;;;;;;;29.00;27.70;;;21.20;99.90;;;;;;5035914;28;20497;-54
2023/08/26 04:04:37;;;;;;;30.43;29.00;;;21.20;99.90;;;;;;5035707;28;20496;-53
2023/08/26 04:07:04;;;;;;;27.83;26.83;;;21.20;99.90;;;;;;5043049;28;20469;-52
2023/08/26 04:09:31;;;;;;;27.33;26.33;;;21.20;99.90;;;;;;5036537;28;20865;-53
2023/08/26 04:11:58;;;;;;;29.63;28.53;;;21.20;99.90;;;;;;5036219;28;20811;-54
2023/08/26 04:14:26;;;;;;;30.23;29.00;;;21.20;99.90;;;;;;5035804;28;20461;-54
2023/08/26 04:16:53;;;;;;;30.10;29.00;;;21.20;99.90;;;;;;5041795;28;20508;-53
2023/08/26 04:19:19;;;;;;;30.30;29.00;;;21.20;99.70;;;;;;5036136;28;20967;-53
2023/08/26 04:21:46;;;;;;;31.50;30.20;;;21.20;99.90;;;;;;5035570;28;20825;-50
2023/08/26 04:24:13;;;;;;;29.97;28.77;;;21.10;99.90;;;;;;5031535;28;20896;-48
2023/08/26 04:26:40;;;;;;;30.10;28.93;;;21.10;99.90;;;;;;5039739;28;20488;-48
2023/08/26 04:29:07;;;;;;;30.37;28.90;;;21.10;99.00;;;;;;5031863;28;20473;-51
2023/08/26 04:31:35;;;;;;;29.23;28.13;;;21.10;99.00;;;;;;5031875;28;20503;-47
2023/08/26 04:34:02;;;;;;;30.43;29.27;;;21.00;99.40;;;;;;5033044;28;20479;-50
2023/08/26 04:36:29;;;;;;;30.30;28.87;;;21.00;99.20;;;;;;5033472;28;20941;-51
2023/08/26 04:38:56;;;;;;;30.70;29.40;;;21.00;99.40;;;;;;5031733;28;20462;-57
2023/08/26 04:41:24;;;;;;;30.60;29.40;;;21.10;99.10;;;;;;5031748;28;20447;-47
2023/08/26 04:43:53;;;;;;;29.17;28.07;;;21.10;98.70;;;;;;5031477;28;20449;-47
2023/08/26 04:46:20;;;;;;;31.27;29.83;;;21.10;99.10;;;;;;5035266;28;20449;-49
2023/08/26 04:48:49;;;;;;;31.30;30.10;;;21.10;98.60;;;;;;5031741;28;20456;-48
2023/08/26 04:51:16;;;;;;;31.13;30.03;;;21.00;98.20;;;;;;5031694;28;20859;-47
2023/08/26 04:53:42;;;;;;;31.13;29.83;;;21.00;98.20;;;;;;5031264;28;20888;-47
2023/08/26 04:56:09;;;;;;;30.10;28.80;;;20.90;98.10;;;;;;5031734;28;21047;-48
2023/08/26 04:58:37;;;;;;;29.53;28.40;;;21.00;99.20;;;;;;5031337;28;20440;-47
2023/08/26 05:01:04;;;;;;;30.27;28.53;;;21.10;99.90;;;;;;5031449;28;20492;-50
2023/08/26 05:03:31;;;;;;;30.53;29.33;;;21.10;99.80;;;;;;5031208;28;20996;-48
2023/08/26 05:05:59;;;;;;;30.10;28.73;;;21.20;99.90;;;;;;5031390;28;20445;-48
2023/08/26 05:08:26;;;;;;;29.63;28.53;;;21.20;99.50;;;;;;5031103;28;20465;-49
2023/08/26 05:10:53;;;;;;;30.20;29.00;;;21.30;99.30;;;;;;5031309;28;20468;-48
2023/08/26 05:13:20;;;;;;;29.93;28.83;;;21.30;98.90;;;;;;5030968;28;20508;-48
2023/08/26 05:15:47;;;;;;;30.93;29.63;;;21.30;98.70;;;;;;5031135;28;20508;-48
2023/08/26 05:18:16;;;;;;;30.97;29.77;;;21.30;98.60;;;;;;5031270;28;20476;-47
2023/08/26 05:20:44;;;;;;;31.53;30.23;;;21.30;98.00;;;;;;5031061;28;20563;-48
2023/08/26 05:23:13;;;;;;;30.30;29.10;;;21.30;97.80;;;;;;5031322;28;20555;-47
2023/08/26 05:25:40;;;;;;;31.77;30.50;;;21.20;97.30;;;;;;5031179;28;20471;-47
2023/08/26 05:28:07;;;;;;;32.20;30.80;;;21.20;97.00;;;;;;5031206;28;20994;-48
2023/08/26 05:30:34;;;;;;;31.33;30.13;;;21.10;97.60;;;;;;5031310;28;20476;-47
2023/08/26 05:33:01;;;;;;;33.47;31.70;;;21.20;98.00;;;;;;5030965;28;21023;-50
2023/08/26 05:35:28;;;;;;;33.20;31.90;;;21.30;98.10;;;;;;5032757;28;20476;-48
2023/08/26 05:37:55;;;;;;;31.63;30.30;;;21.40;98.60;;;;;;5035053;28;20476;-47
2023/08/26 05:40:26;;;;;;;32.83;31.20;;;21.50;98.70;;;;;;5037993;28;20480;-48
2023/08/26 05:42:55;;;;;;;31.73;30.20;;;21.60;98.90;;;;;;5037932;28;20472;-49
2023/08/26 05:45:22;;;;;;;30.53;29.40;;;21.60;99.20;;;;;;5034585;28;20437;-48
2023/08/26 05:47:49;;;;;;;31.03;29.67;;;21.70;99.30;;;;;;5034889;28;20472;-46
2023/08/26 05:50:16;;;;;;;32.77;31.47;;;21.80;99.50;;;;;;5040309;28;20544;-47
2023/08/26 05:52:43;;;;;;;30.90;29.70;;;21.90;99.40;;;;;;5035088;28;20499;-47
2023/08/26 05:55:11;;;;;;;32.67;30.63;;;22.00;99.70;;;;;;5034519;28;20468;-48
2023/08/26 05:57:40;;;;;;;31.67;30.47;;;22.00;99.70;;;;;;5034502;28;20891;-46
2023/08/26 06:00:12;;;;;;;31.97;30.67;;;22.10;99.90;;;;;;5034803;28;20510;-46
2023/08/26 06:02:42;;;;;;;32.60;31.30;;;22.10;99.90;;;;;;5033646;28;20469;-47
2023/08/26 06:05:11;;;;;;;31.07;29.90;;;22.20;99.90;;;;;;5034375;28;20437;-48
2023/08/26 06:07:38;;;;;;;32.00;30.80;;;22.20;99.90;;;;;;5034495;28;20453;-47
2023/08/26 06:10:06;;;;;;;31.80;30.57;;;22.30;99.90;;;;;;5044204;28;20445;-48
2023/08/26 06:12:41;;;;;;;31.40;30.17;;;22.30;99.90;;;;;;5036232;28;20550;-47
2023/08/26 06:15:09;;;;;;;32.10;30.70;;;22.40;99.90;;;;;;5034248;28;20955;-47
2023/08/26 06:17:35;;;;;;;31.07;29.87;;;22.40;99.90;;;;;;5034141;28;21000;-47
2023/08/26 06:20:03;;;;;;;31.80;30.60;;;22.40;99.90;;;;;;5034377;28;20998;-46
2023/08/26 06:22:30;;;;;;;36.90;35.60;;;22.50;99.90;;;;;;5034028;28;20460;-48
2023/08/26 06:24:57;;;;;;;36.47;34.70;;;22.50;99.90;;;;;;5034110;28;20533;-49
2023/08/26 06:27:25;;;;;;;32.63;31.20;;;22.50;99.90;;;;;;5034028;28;20472;-48
2023/08/26 06:29:58;;;;;;;33.93;32.53;;;22.60;99.90;;;;;;5034148;28;20824;-48
2023/08/26 06:32:28;;;;;;;34.80;33.40;;;22.60;99.90;;;;;;5033827;28;20460;-48
2023/08/26 06:34:58;;;;;;;36.30;34.83;;;22.70;99.90;;;;;;5033266;28;20442;-47
2023/08/26 06:37:28;;;;;;;35.10;33.73;;;22.80;99.90;;;;;;5040523;28;21037;-48
2023/08/26 06:39:56;;;;;;;33.90;32.60;;;22.80;99.90;;;;;;5033845;28;20519;-48
2023/08/26 06:42:25;;;;;;;35.40;33.70;;;22.90;99.90;;;;;;5033839;28;21015;-48
2023/08/26 06:44:54;;;;;;;32.13;30.93;;;22.90;99.90;;;;;;5025645;28;20464;-48
2023/08/26 06:47:26;;;;;;;33.20;31.90;;;22.90;99.90;;;;;;5038259;28;20979;-48
2023/08/26 06:49:59;;;;;;;35.27;33.87;;;22.90;99.90;;;;;;5025975;28;20449;-47
2023/08/26 06:52:31;;;;;;;34.23;32.87;;;23.00;99.90;;;;;;5033775;28;20523;-47
2023/08/26 06:54:58;;;;;;;34.00;32.70;;;23.00;99.90;;;;;;5037765;28;20448;-47
2023/08/26 06:57:25;;;;;;;35.27;33.00;;;23.10;99.90;;;;;;5033321;28;20569;-49
2023/08/26 06:59:52;;;;;;;34.57;33.30;;;23.10;99.90;;;;;;5033526;28;20472;-47
2023/08/26 07:02:19;;;;;;;33.70;32.40;;;23.20;99.90;;;;;;5033420;28;20497;-47
2023/08/26 07:04:48;;;;;;;33.80;32.40;;;23.20;99.90;;;;;;5040435;28;20476;-47
2023/08/26 07:07:15;;;;;;;35.77;34.47;;;23.20;99.90;;;;;;5037386;28;20449;-48
2023/08/26 07:09:41;;;;;;;33.43;32.13;;;23.20;99.90;;;;;;5033279;28;20480;-47
2023/08/26 07:12:21;;;;;;;33.30;32.00;;;23.30;99.90;;;;;;5033107;28;20489;-48
2023/08/26 07:14:48;;;;;;;33.80;32.50;;;23.30;99.90;;;;;;5032887;28;20801;-48
2023/08/26 07:17:17;;;;;;;35.30;33.90;;;23.30;99.90;;;;;;5033107;28;20476;-48
2023/08/26 07:19:44;;;;;;;32.77;31.57;;;23.30;99.80;;;;;;5033013;28;20445;-48
2023/08/26 07:22:13;;;;;;;33.77;32.40;;;23.40;99.80;;;;;;5033003;28;20496;-48
2023/08/26 07:24:45;;;;;;;33.57;32.37;;;23.40;99.60;;;;;;5033793;28;20488;-48
2023/08/26 07:27:13;;;;;;;32.57;31.33;;;23.40;99.40;;;;;;5033001;28;20997;-51
2023/08/26 07:29:49;;;;;;;29.63;28.33;;;23.40;99.60;;;;;;5031689;28;20493;-49
2023/08/26 07:32:19;;;;;;;34.20;32.80;;;23.40;99.70;;;;;;5032676;28;20774;-49
2023/08/26 07:34:52;;;;;;;34.60;33.20;;;23.50;99.50;;;;;;5039078;28;20453;-48
2023/08/26 07:37:26;;;;;;;35.33;33.93;;;23.60;99.30;;;;;;5032859;28;20515;-48
2023/08/26 07:39:53;;;;;;;34.70;33.30;;;23.60;99.30;;;;;;5025046;28;20443;-47
2023/08/26 07:42:20;;;;;;;34.00;32.70;;;23.60;99.20;;;;;;5032654;28;20485;-48
2023/08/26 07:44:47;;;;;;;35.30;34.00;;;23.60;99.30;;;;;;5033601;28;20487;-48
2023/08/26 07:47:14;;;;;;;34.03;32.73;;;23.60;99.00;;;;;;5032700;28;20609;-50
2023/08/26 07:49:41;;;;;;;34.97;33.37;;;23.60;98.70;;;;;;5032501;28;20979;-48
2023/08/26 07:52:09;;;;;;;35.87;34.57;;;23.60;98.80;;;;;;5032462;28;20492;-53
2023/08/26 07:54:37;;;;;;;35.40;34.10;;;23.60;98.90;;;;;;5034178;28;20445;-48
2023/08/26 07:57:04;;;;;;;35.37;33.87;;;23.60;98.90;;;;;;5036118;28;20594;-48
2023/08/26 07:59:31;;;;;;;32.63;31.33;;;23.60;98.80;;;;;;5031397;28;20476;-48
2023/08/26 08:01:58;;;;;;;32.20;30.80;;;23.70;98.90;;;;;;5032258;28;20503;-48
2023/08/26 08:04:25;;;;;;;34.10;32.70;;;23.70;98.70;;;;;;5033184;28;20449;-48
2023/08/26 08:06:52;;;;;;;32.20;30.90;;;23.70;98.60;;;;;;5032336;28;20465;-48
2023/08/26 08:09:19;;;;;;;34.87;33.47;;;23.70;98.50;;;;;;5032248;28;20465;-48
2023/08/26 08:11:47;;;;;;;33.40;32.10;;;23.70;98.60;;;;;;5032058;28;20468;-48
2023/08/26 08:14:14;;;;;;;34.40;32.90;;;23.70;98.40;;;;;;5035495;28;20795;-49
2023/08/26 08:16:41;;;;;;;31.53;30.33;;;23.70;98.40;;;;;;5031883;28;20880;-49
2023/08/26 08:19:07;;;;;;;31.93;30.73;;;23.70;98.40;;;;;;5032054;28;20476;-47
2023/08/26 08:21:34;;;;;;;35.80;34.40;;;23.70;98.50;;;;;;5031732;28;20472;-46
2023/08/26 08:24:01;;;;;;;35.63;34.03;;;23.70;98.50;;;;;;5035281;28;20486;-47
2023/08/26 08:26:32;;;;;;;34.67;33.27;;;23.70;98.40;;;;;;5035185;28;20452;-48
2023/08/26 08:29:01;;;;;;;34.37;32.97;;;23.70;98.30;;;;;;5031799;28;20437;-49
2023/08/26 08:31:28;;;;;;;34.27;32.97;;;23.70;97.60;;;;;;5031857;28;20963;-47
2023/08/26 08:33:55;;;;;;;36.50;35.10;;;23.70;97.60;;;;;;5027089;28;20480;-48
2023/08/26 08:36:22;;;;;;;34.57;33.27;;;23.70;97.50;;;;;;5031777;28;20524;-47
2023/08/26 08:38:49;;;;;;;31.73;30.53;;;23.70;97.30;;;;;;5031591;28;20524;-47
2023/08/26 08:41:15;;;;;;;32.67;31.37;;;23.70;97.10;;;;;;5031546;28;20480;-47
2023/08/26 08:43:46;;;;;;;35.57;34.17;;;23.70;97.20;;;;;;5031515;28;20912;-47
2023/08/26 08:46:17;;;;;;;34.73;33.37;;;23.70;97.50;;;;;;5031693;28;20433;-47
2023/08/26 08:48:44;;;;;;;37.27;35.90;;;23.70;97.00;;;;;;5031472;28;20965;-47
2023/08/26 08:51:12;;;;;;;35.83;34.53;;;23.70;97.00;;;;;;5031431;28;20999;-47
2023/08/26 08:53:45;;;;;;;35.07;33.77;;;23.70;97.00;;;;;;5033913;28;20468;-47
2023/08/26 08:56:15;;;;;;;34.33;33.03;;;23.70;96.90;;;;;;5038268;28;20458;-47
2023/08/26 08:58:46;;;;;;;34.70;33.40;;;23.70;96.80;;;;;;5035752;28;21016;-46
2023/08/26 09:01:14;;;;;;;33.00;31.70;;;23.70;96.80;;;;;;5031382;28;20465;-47
2023/08/26 09:03:41;;;;;;;35.43;33.77;;;23.60;96.60;;;;;;5031220;28;20473;-49
2023/08/26 09:06:09;;;;;;;43.30;41.70;;;23.60;96.80;;;;;;5036711;28;20492;-47
2023/08/26 09:08:36;;;;;;;43.70;42.10;;;23.60;97.10;;;;;;5031217;28;20465;-53
2023/08/26 09:11:11;;;;;;;41.93;40.33;;;23.70;97.50;;;;;;5030987;28;20469;-49
2023/08/26 09:13:39;;;;;;;42.33;40.63;;;23.70;97.30;;;;;;5032081;28;20496;-48
2023/08/26 09:16:09;;;;;;;42.57;41.07;;;23.80;97.20;;;;;;5031330;28;20483;-47
2023/08/26 09:18:41;;;;;;;46.03;44.30;;;23.80;96.60;;;;;;5031029;28;20552;-54
2023/08/26 09:21:19;;;;;;;43.60;42.00;;;23.90;96.40;;;;;;5031082;28;20459;-46
2023/08/26 09:23:47;;;;;;;44.40;42.80;;;24.10;96.30;;;;;;5030393;28;20468;-47
2023/08/26 09:26:16;;;;;;;43.43;41.83;;;24.20;95.90;;;;;;5032183;28;20457;-49
2023/08/26 09:28:51;;;;;;;44.23;42.53;;;24.40;96.40;;;;;;5030959;28;20850;-47
2023/08/26 09:31:29;;;;;;;45.83;44.13;;;24.60;95.70;;;;;;5030831;28;20437;-47
2023/08/26 09:34:04;;;;;;;44.50;42.90;;;24.70;95.40;;;;;;5025053;28;20547;-47
2023/08/26 09:36:40;;;;;;;45.60;43.97;;;24.90;95.10;;;;;;5038191;28;20939;-47
2023/08/26 09:39:15;;;;;;;44.20;42.60;;;25.00;94.80;;;;;;5035701;28;20473;-47
2023/08/26 09:41:43;;;;;;;44.50;42.70;;;25.10;94.40;;;;;;5030853;28;20474;-46
2023/08/26 09:44:13;;;;;;;45.03;43.33;;;25.20;94.20;;;;;;5030982;28;20536;-47
2023/08/26 09:46:42;;;;;;;44.47;42.77;;;25.40;93.90;;;;;;5030915;28;20825;-47
2023/08/26 09:49:26;;;;;;;43.90;42.30;;;25.50;93.70;;;;;;5030895;28;20477;-46
2023/08/26 09:51:56;;;;;;;44.97;43.27;;;25.50;93.00;;;;;;5029783;28;20988;-47
2023/08/26 09:54:25;;;;;;;43.20;41.60;;;25.60;93.20;;;;;;5030549;28;20437;-48
2023/08/26 09:56:53;;;;;;;42.77;41.23;;;25.70;92.80;;;;;;5033856;28;20452;-47
2023/08/26 09:59:26;;;;;;;44.00;42.30;;;25.80;93.00;;;;;;5030984;28;20509;-47
2023/08/26 10:01:55;;;;;;;44.40;42.80;;;25.90;92.30;;;;;;5030761;28;20471;-47
2023/08/26 10:04:29;;;;;;;44.63;42.90;;;25.90;92.50;;;;;;5031960;28;20848;-48
2023/08/26 10:07:05;;;;;;;44.10;42.50;;;26.00;92.00;;;;;;5030749;28;20453;-49
2023/08/26 10:09:41;;;;;;;45.60;44.00;;;26.00;92.00;;;;;;5029635;28;20516;-49
2023/08/26 10:12:20;;;;;;;45.20;43.50;;;26.10;92.20;;;;;;5023794;28;20495;-49
2023/08/26 10:14:53;;;;;;;45.93;44.30;;;26.20;91.60;;;;;;5031293;28;20483;-48
2023/08/26 10:17:24;;;;;;;43.60;42.00;;;26.20;91.30;;;;;;5030702;28;20995;-47
2023/08/26 10:20:03;;;;;;;45.93;44.07;;;26.30;91.30;;;;;;5030510;28;20448;-47
2023/08/26 10:22:50;;;;;;;43.93;42.13;;;26.30;90.70;;;;;;5060581;22;20499;-47
2023/08/26 10:25:19;;;;;;;47.70;45.93;;;26.40;91.10;;;;;;4996996;28;20442;-49
2023/08/26 10:27:47;;;;;;;46.33;44.40;;;26.20;84.20;;;;;;4996087;28;20451;-48
2023/08/26 10:30:26;;;;;;;44.87;43.07;;;26.10;81.10;;;;;;4996020;28;20486;-47
2023/08/26 10:33:05;;;;;;;45.67;44.07;;;26.00;76.90;;;;;;4996672;28;23189;-48
2023/08/26 10:35:40;;;;;;;45.43;43.60;;;25.90;74.80;;;;;;4992779;28;20443;-47
2023/08/26 10:38:14;;;;;;;46.07;44.23;;;25.80;75.00;;;;;;4989031;28;20513;-53
2023/08/26 10:40:44;;;;;;;44.80;43.20;;;25.90;76.10;;;;;;4996533;28;20448;-50
2023/08/26 10:43:13;;;;;;;45.23;43.33;;;25.90;75.30;;;;;;4994225;28;20481;-49
2023/08/26 10:45:58;;;;;;;45.97;44.17;;;25.80;73.20;;;;;;4994058;28;20504;-48
2023/08/26 10:48:26;;;;;;;47.20;45.40;;;25.70;70.70;;;;;;4996075;28;20478;-48
2023/08/26 10:51:02;;;;;;;47.73;45.70;;;25.60;70.70;;;;;;4995989;28;20485;-48
2023/08/26 10:53:33;;;;;;;48.50;46.60;;;25.60;73.00;;;;;;4987852;28;20851;-49
2023/08/26 10:56:21;;;;;;;45.30;43.50;;;25.70;72.60;;;;;;4985706;28;20501;-52
2023/08/26 10:58:52;;;;;;;47.00;45.10;;;25.60;68.40;;;;;;4995240;28;20478;-49
2023/08/26 11:01:21;;;;;;;46.30;44.60;;;25.60;69.20;;;;;;4993478;28;20478;-48
2023/08/26 11:03:48;;;;;;;47.27;45.47;;;25.60;69.60;;;;;;4988095;28;20503;-47
2023/08/26 11:06:22;;;;;;;39.60;38.20;;;25.70;70.30;;;;;;4992398;28;20484;-48
2023/08/26 11:08:56;;;;;;;45.93;44.23;;;25.80;70.10;;;;;;4993695;28;20195;-48
2023/08/26 11:11:26;;;;;;;45.87;44.27;;;25.90;71.70;;;;;;4993707;28;20455;-52
2023/08/26 11:13:55;;;;;;;48.33;46.63;;;26.10;71.60;;;;;;4993485;28;20471;-50
2023/08/26 11:16:23;;;;;;;44.63;43.03;;;26.20;72.20;;;;;;4994518;28;20478;-51
2023/08/26 11:18:57;;;;;;;44.20;42.60;;;26.20;73.00;;;;;;4993256;28;20482;-50
2023/08/26 11:21:26;;;;;;;48.27;46.57;;;26.20;72.50;;;;;;4993251;28;20443;-50
2023/08/26 11:23:55;;;;;;;46.73;44.67;;;26.30;72.80;;;;;;4994045;28;20483;-49
2023/08/26 11:26:24;;;;;;;45.20;43.50;;;26.30;72.90;;;;;;4995928;28;20574;-49
2023/08/26 11:28:52;;;;;;;46.80;45.20;;;26.40;73.30;;;;;;4994666;28;20448;-51
2023/08/26 11:31:28;;;;;;;46.10;44.50;;;26.40;73.10;;;;;;4996158;28;20474;-48
2023/08/26 11:33:56;;;;;;;45.87;44.27;;;26.40;73.30;;;;;;4993898;28;20527;-50
2023/08/26 11:36:35;;;;;;;45.03;43.43;;;26.60;73.90;;;;;;4993201;28;20439;-48
2023/08/26 11:39:02;;;;;;;43.60;42.00;;;26.60;74.90;;;;;;4986295;28;20524;-48
2023/08/26 11:41:30;;;;;;;45.60;43.90;;;26.60;73.50;;;;;;4993994;28;20447;-49
2023/08/26 11:44:01;;;;;;;44.90;43.30;;;26.70;73.60;;;;;;4993739;28;20494;-51
2023/08/26 11:46:28;;;;;;;45.23;43.53;;;26.70;73.00;;;;;;4994211;28;20459;-48
2023/08/26 11:48:56;;;;;;;46.20;44.60;;;26.70;73.20;;;;;;4994014;28;20478;-48
2023/08/26 11:51:28;;;;;;;45.57;43.97;;;26.80;73.00;;;;;;4992698;28;20447;-47
2023/08/26 11:54:00;;;;;;;47.60;45.90;;;26.80;73.00;;;;;;4992268;28;20498;-50
2023/08/26 11:56:28;;;;;;;46.23;44.63;;;26.80;73.00;;;;;;4984979;28;20486;-49
2023/08/26 11:58:56;;;;;;;46.97;45.27;;;26.90;73.30;;;;;;4992443;28;20486;-48
2023/08/26 12:01:24;;;;;;;44.37;42.77;;;26.90;73.00;;;;;;4991845;28;20805;-48
2023/08/26 12:03:51;;;;;;;46.03;44.23;;;26.90;72.40;;;;;;4991951;28;20494;-48
2023/08/26 12:06:22;;;;;;;44.90;43.30;;;26.90;72.60;;;;;;4987069;28;20913;-48
2023/08/26 12:08:55;;;;;;;47.10;45.30;;;26.90;72.40;;;;;;4992391;28;20479;-51
2023/08/26 12:11:24;;;;;;;48.47;46.63;;;26.90;71.90;;;;;;4991838;28;20867;-54
2023/08/26 12:13:55;;;;;;;47.80;45.70;;;26.90;72.10;;;;;;4992944;28;20478;-49
2023/08/26 12:16:28;;;;;;;46.70;45.00;;;27.00;71.50;;;;;;4989429;28;21001;-51
2023/08/26 12:19:09;;;;;;;44.97;43.37;;;27.00;71.20;;;;;;4991782;28;20501;-52
2023/08/26 12:21:36;;;;;;;46.53;44.83;;;27.00;71.30;;;;;;4991811;28;20500;-52
2023/08/26 12:24:06;;;;;;;48.67;46.77;;;27.10;72.10;;;;;;4982876;28;20489;-49
2023/08/26 12:26:38;;;;;;;46.60;44.87;;;27.00;71.70;;;;;;4991330;28;20473;-50
2023/08/26 12:29:05;;;;;;;48.87;47.10;;;27.10;71.70;;;;;;4978411;28;20462;-50
2023/08/26 12:31:34;;;;;;;50.13;48.20;;;27.00;71.40;;;;;;4990658;28;20476;-50
2023/08/26 12:34:06;;;;;;;46.93;45.23;;;27.00;71.50;;;;;;4989119;28;20471;-52
2023/08/26 12:36:38;;;;;;;47.03;45.33;;;27.00;71.00;;;;;;4991361;28;20450;-49